NKS8759 KMCO-KATL
Flight info
| Callsign | NKS8759 |
|---|---|
| Flight time | 1h 29m |
| Altitude | 32000 |
| Route | JEEMY3 PAINN SHRKS LAIRI LARZZ JJEDI3 |
| Aircraft | A320/M-SDE3FGHIRWY/LB1 |
Departure
| Time | 2026-05-08 04:41 |
|---|---|
| Airport | Orlando International Airport (KMCO) |
Arrival
| Time | 2026-05-08 06:11 |
|---|---|
| Airport | Hartsfield Jackson Atlanta International Airport (KATL) |
| Time | Latitude | Longitude | Altitude | Speed | Heading |
|---|---|---|---|---|---|
| 2026-05-08 03:34 | 28.44968 | -81.31712 | 103 ft | 0 kts | 15° |
| 2026-05-08 04:05 | 28.44967 | -81.31712 | 94 ft | 1 kts | 15° |
| 2026-05-08 04:05 | 28.44952 | -81.31716 | 103 ft | 3 kts | 3° |
| 2026-05-08 04:06 | 28.44934 | -81.31713 | 101 ft | 3 kts | 321° |
| 2026-05-08 04:06 | 28.44926 | -81.31699 | 101 ft | 2 kts | 270° |
| 2026-05-08 04:10 | 28.44926 | -81.31704 | 103 ft | 1 kts | 270° |
| 2026-05-08 04:10 | 28.44926 | -81.31716 | 101 ft | 2 kts | 270° |
| 2026-05-08 04:10 | 28.44925 | -81.31737 | 103 ft | 3 kts | 267° |
| 2026-05-08 04:11 | 28.44919 | -81.31763 | 101 ft | 4 kts | 246° |
| 2026-05-08 04:11 | 28.44905 | -81.31787 | 103 ft | 4 kts | 227° |
| 2026-05-08 04:11 | 28.44885 | -81.31810 | 103 ft | 4 kts | 226° |
| 2026-05-08 04:11 | 28.44863 | -81.31835 | 103 ft | 5 kts | 225° |
| 2026-05-08 04:12 | 28.44841 | -81.31858 | 103 ft | 4 kts | 208° |
| 2026-05-08 04:12 | 28.44831 | -81.31867 | 103 ft | 1 kts | 232° |
| 2026-05-08 04:12 | 28.44823 | -81.31878 | 103 ft | 3 kts | 232° |
| 2026-05-08 04:12 | 28.44802 | -81.31899 | 103 ft | 5 kts | 208° |
| 2026-05-08 04:13 | 28.44756 | -81.31907 | 102 ft | 8 kts | 181° |
| 2026-05-08 04:13 | 28.44690 | -81.31906 | 101 ft | 10 kts | 179° |
| 2026-05-08 04:13 | 28.44666 | -81.31905 | 101 ft | 10 kts | 179° |
| 2026-05-08 04:14 | 28.44650 | -81.31905 | 101 ft | 9 kts | 179° |
| 2026-05-08 04:14 | 28.44590 | -81.31903 | 102 ft | 7 kts | 179° |
| 2026-05-08 04:14 | 28.44549 | -81.31903 | 103 ft | 4 kts | 182° |
| 2026-05-08 04:14 | 28.44529 | -81.31904 | 104 ft | 1 kts | 182° |
| 2026-05-08 04:15 | 28.44523 | -81.31904 | 104 ft | 2 kts | 182° |
| 2026-05-08 04:15 | 28.44504 | -81.31905 | 104 ft | 4 kts | 181° |
| 2026-05-08 04:15 | 28.44469 | -81.31905 | 105 ft | 6 kts | 178° |
| 2026-05-08 04:15 | 28.44416 | -81.31904 | 106 ft | 9 kts | 179° |
| 2026-05-08 04:16 | 28.44340 | -81.31903 | 107 ft | 13 kts | 179° |
| 2026-05-08 04:16 | 28.44243 | -81.31902 | 105 ft | 14 kts | 179° |
| 2026-05-08 04:16 | 28.44152 | -81.31901 | 107 ft | 11 kts | 180° |
| 2026-05-08 04:16 | 28.44085 | -81.31899 | 108 ft | 9 kts | 177° |
| 2026-05-08 04:17 | 28.44026 | -81.31887 | 109 ft | 9 kts | 163° |
| 2026-05-08 04:17 | 28.43964 | -81.31865 | 109 ft | 10 kts | 162° |
| 2026-05-08 04:17 | 28.43887 | -81.31847 | 107 ft | 12 kts | 179° |
| 2026-05-08 04:17 | 28.43799 | -81.31847 | 106 ft | 14 kts | 180° |
| 2026-05-08 04:18 | 28.43699 | -81.31845 | 105 ft | 15 kts | 179° |
| 2026-05-08 04:18 | 28.43591 | -81.31845 | 105 ft | 16 kts | 179° |
| 2026-05-08 04:18 | 28.43481 | -81.31844 | 103 ft | 17 kts | 179° |
| 2026-05-08 04:18 | 28.43358 | -81.31842 | 101 ft | 19 kts | 178° |
| 2026-05-08 04:19 | 28.43232 | -81.31841 | 101 ft | 16 kts | 179° |
| 2026-05-08 04:19 | 28.43133 | -81.31840 | 102 ft | 12 kts | 178° |
| 2026-05-08 04:19 | 28.43059 | -81.31839 | 102 ft | 9 kts | 179° |
| 2026-05-08 04:19 | 28.43000 | -81.31838 | 102 ft | 8 kts | 179° |
| 2026-05-08 04:20 | 28.42954 | -81.31837 | 101 ft | 6 kts | 179° |
| 2026-05-08 04:20 | 28.42920 | -81.31837 | 102 ft | 4 kts | 180° |
| 2026-05-08 04:20 | 28.42895 | -81.31837 | 102 ft | 4 kts | 180° |
| 2026-05-08 04:20 | 28.42873 | -81.31838 | 102 ft | 3 kts | 180° |
| 2026-05-08 04:21 | 28.42857 | -81.31838 | 102 ft | 2 kts | 180° |
| 2026-05-08 04:21 | 28.42848 | -81.31838 | 102 ft | 1 kts | 180° |
| 2026-05-08 04:21 | 28.42838 | -81.31838 | 102 ft | 2 kts | 180° |
| 2026-05-08 04:21 | 28.42824 | -81.31837 | 103 ft | 3 kts | 177° |
| 2026-05-08 04:22 | 28.42793 | -81.31836 | 104 ft | 6 kts | 178° |
| 2026-05-08 04:22 | 28.42736 | -81.31836 | 105 ft | 10 kts | 179° |
| 2026-05-08 04:22 | 28.42655 | -81.31835 | 104 ft | 14 kts | 180° |
| 2026-05-08 04:22 | 28.42558 | -81.31833 | 106 ft | 14 kts | 180° |
| 2026-05-08 04:23 | 28.42454 | -81.31832 | 105 ft | 14 kts | 180° |
| 2026-05-08 04:23 | 28.42355 | -81.31831 | 106 ft | 13 kts | 180° |
| 2026-05-08 04:23 | 28.42272 | -81.31804 | 106 ft | 13 kts | 123° |
| 2026-05-08 04:23 | 28.42265 | -81.31682 | 102 ft | 18 kts | 91° |
| 2026-05-08 04:24 | 28.42266 | -81.31542 | 99 ft | 17 kts | 89° |
| 2026-05-08 04:24 | 28.42268 | -81.31410 | 97 ft | 16 kts | 89° |
| 2026-05-08 04:24 | 28.42267 | -81.31283 | 95 ft | 15 kts | 91° |
| 2026-05-08 04:24 | 28.42255 | -81.31169 | 96 ft | 14 kts | 102° |
| 2026-05-08 04:25 | 28.42240 | -81.31067 | 96 ft | 12 kts | 98° |
| 2026-05-08 04:25 | 28.42235 | -81.31005 | 98 ft | 2 kts | 92° |
| 2026-05-08 04:25 | 28.42234 | -81.30997 | 101 ft | 8 kts | 91° |
| 2026-05-08 04:25 | 28.42235 | -81.30950 | 102 ft | 6 kts | 87° |
| 2026-05-08 04:26 | 28.42238 | -81.30900 | 102 ft | 7 kts | 86° |
| 2026-05-08 04:26 | 28.42243 | -81.30837 | 102 ft | 8 kts | 84° |
| 2026-05-08 04:26 | 28.42247 | -81.30778 | 104 ft | 6 kts | 86° |
| 2026-05-08 04:26 | 28.42251 | -81.30727 | 104 ft | 7 kts | 86° |
| 2026-05-08 04:27 | 28.42254 | -81.30665 | 104 ft | 8 kts | 86° |
| 2026-05-08 04:27 | 28.42260 | -81.30595 | 104 ft | 10 kts | 84° |
| 2026-05-08 04:27 | 28.42266 | -81.30515 | 104 ft | 11 kts | 86° |
| 2026-05-08 04:27 | 28.42271 | -81.30418 | 100 ft | 15 kts | 85° |
| 2026-05-08 04:28 | 28.42279 | -81.30298 | 101 ft | 15 kts | 86° |
| 2026-05-08 04:28 | 28.42277 | -81.30182 | 101 ft | 15 kts | 89° |
| 2026-05-08 04:28 | 28.42279 | -81.30068 | 103 ft | 14 kts | 89° |
| 2026-05-08 04:28 | 28.42280 | -81.29957 | 104 ft | 13 kts | 89° |
| 2026-05-08 04:29 | 28.42279 | -81.29870 | 103 ft | 10 kts | 95° |
| 2026-05-08 04:29 | 28.42251 | -81.29809 | 102 ft | 8 kts | 144° |
| 2026-05-08 04:29 | 28.42203 | -81.29793 | 101 ft | 6 kts | 174° |
| 2026-05-08 04:29 | 28.42169 | -81.29792 | 102 ft | 5 kts | 179° |
| 2026-05-08 04:30 | 28.42128 | -81.29791 | 102 ft | 7 kts | 179° |
| 2026-05-08 04:30 | 28.42072 | -81.29790 | 102 ft | 9 kts | 179° |
| 2026-05-08 04:30 | 28.42005 | -81.29789 | 102 ft | 11 kts | 179° |
| 2026-05-08 04:30 | 28.41925 | -81.29789 | 102 ft | 12 kts | 180° |
| 2026-05-08 04:31 | 28.41834 | -81.29789 | 102 ft | 14 kts | 179° |
| 2026-05-08 04:31 | 28.41732 | -81.29787 | 102 ft | 15 kts | 180° |
| 2026-05-08 04:31 | 28.41621 | -81.29786 | 102 ft | 17 kts | 178° |
| 2026-05-08 04:31 | 28.41499 | -81.29785 | 101 ft | 18 kts | 180° |
| 2026-05-08 04:32 | 28.41368 | -81.29783 | 100 ft | 20 kts | 179° |
| 2026-05-08 04:32 | 28.41259 | -81.29782 | 100 ft | 20 kts | 179° |
| 2026-05-08 04:32 | 28.41117 | -81.29780 | 100 ft | 19 kts | 180° |
| 2026-05-08 04:32 | 28.41004 | -81.29779 | 99 ft | 14 kts | 179° |
| 2026-05-08 04:33 | 28.40922 | -81.29778 | 99 ft | 9 kts | 179° |
| 2026-05-08 04:33 | 28.40872 | -81.29777 | 99 ft | 5 kts | 179° |
| 2026-05-08 04:33 | 28.40854 | -81.29774 | 100 ft | 0 kts | 167° |
| 2026-05-08 04:33 | 28.40840 | -81.29765 | 99 ft | 5 kts | 143° |
| 2026-05-08 04:34 | 28.40824 | -81.29727 | 99 ft | 2 kts | 98° |
| 2026-05-08 04:34 | 28.40821 | -81.29688 | 98 ft | 7 kts | 91° |
| 2026-05-08 04:34 | 28.40821 | -81.29676 | 98 ft | 0 kts | 90° |
| 2026-05-08 04:37 | 28.40821 | -81.29675 | 98 ft | 1 kts | 91° |
| 2026-05-08 04:38 | 28.40821 | -81.29666 | 99 ft | 2 kts | 91° |
| 2026-05-08 04:38 | 28.40821 | -81.29635 | 99 ft | 5 kts | 91° |
| 2026-05-08 04:38 | 28.40822 | -81.29584 | 98 ft | 7 kts | 75° |
| 2026-05-08 04:38 | 28.40857 | -81.29562 | 98 ft | 5 kts | 9° |
| 2026-05-08 04:39 | 28.40873 | -81.29561 | 97 ft | 0 kts | 3° |
| 2026-05-08 04:40 | 28.40880 | -81.29560 | 97 ft | 12 kts | 3° |
| 2026-05-08 04:40 | 28.41208 | -81.29565 | 101 ft | 81 kts | 359° |
| 2026-05-08 04:40 | 28.41981 | -81.29575 | 103 ft | 139 kts | 359° |
| 2026-05-08 04:40 | 28.43092 | -81.29703 | 117 ft | 183 kts | 349° |
| 2026-05-08 04:41 | 28.44354 | -81.29925 | 671 ft | 183 kts | 349° |
| 2026-05-08 04:41 | 28.45602 | -81.30128 | 1372 ft | 179 kts | 356° |
| 2026-05-08 04:41 | 28.46773 | -81.29756 | 1938 ft | 184 kts | 41° |
| 2026-05-08 04:41 | 28.47673 | -81.28602 | 2151 ft | 207 kts | 50° |
| 2026-05-08 04:42 | 28.48705 | -81.27421 | 2669 ft | 212 kts | 41° |
| 2026-05-08 04:42 | 28.49882 | -81.26383 | 3263 ft | 214 kts | 33° |
| 2026-05-08 04:42 | 28.51235 | -81.25647 | 3834 ft | 215 kts | 18° |
| 2026-05-08 04:42 | 28.52688 | -81.25241 | 4425 ft | 216 kts | 8° |
| 2026-05-08 04:43 | 28.54190 | -81.25064 | 4973 ft | 217 kts | 2° |
| 2026-05-08 04:43 | 28.55705 | -81.25050 | 5473 ft | 219 kts | 358° |
| 2026-05-08 04:43 | 28.57209 | -81.25186 | 5964 ft | 221 kts | 350° |
| 2026-05-08 04:43 | 28.58705 | -81.25583 | 6457 ft | 223 kts | 343° |
| 2026-05-08 04:44 | 28.60210 | -81.26156 | 6908 ft | 224 kts | 339° |
| 2026-05-08 04:44 | 28.61643 | -81.26805 | 7378 ft | 225 kts | 336° |
| 2026-05-08 04:44 | 28.63076 | -81.27597 | 7678 ft | 240 kts | 329° |
| 2026-05-08 04:44 | 28.64564 | -81.28638 | 7896 ft | 259 kts | 325° |
| 2026-05-08 04:45 | 28.66052 | -81.29802 | 8548 ft | 260 kts | 323° |
| 2026-05-08 04:45 | 28.67509 | -81.31005 | 9191 ft | 262 kts | 322° |
| 2026-05-08 04:45 | 28.68961 | -81.32239 | 9628 ft | 257 kts | 321° |
| 2026-05-08 04:45 | 28.69905 | -81.33056 | 9801 ft | 261 kts | 320° |
| 2026-05-08 04:46 | 28.71846 | -81.34755 | 9940 ft | 265 kts | 322° |
| 2026-05-08 04:46 | 28.72906 | -81.35476 | 9976 ft | 266 kts | 332° |
| 2026-05-08 04:46 | 28.75197 | -81.36492 | 10053 ft | 266 kts | 340° |
| 2026-05-08 04:46 | 28.76383 | -81.36908 | 10163 ft | 270 kts | 341° |
| 2026-05-08 04:47 | 28.78188 | -81.37460 | 10703 ft | 269 kts | 343° |
| 2026-05-08 04:47 | 28.80615 | -81.38102 | 11446 ft | 271 kts | 345° |
| 2026-05-08 04:47 | 28.81846 | -81.38399 | 11800 ft | 273 kts | 345° |
| 2026-05-08 04:47 | 28.83711 | -81.38824 | 12341 ft | 274 kts | 346° |
| 2026-05-08 04:48 | 28.86219 | -81.39369 | 13061 ft | 276 kts | 346° |
| 2026-05-08 04:48 | 28.87476 | -81.39636 | 13407 ft | 277 kts | 346° |
| 2026-05-08 04:48 | 28.89375 | -81.40035 | 13914 ft | 279 kts | 346° |
| 2026-05-08 04:48 | 28.91293 | -81.40438 | 14362 ft | 280 kts | 346° |
| 2026-05-08 04:49 | 28.93860 | -81.40929 | 14942 ft | 283 kts | 347° |
| 2026-05-08 04:49 | 28.95813 | -81.41238 | 15375 ft | 285 kts | 348° |
| 2026-05-08 04:49 | 28.97155 | -81.41428 | 15663 ft | 287 kts | 348° |
| 2026-05-08 04:49 | 28.99138 | -81.41685 | 16078 ft | 289 kts | 349° |
| 2026-05-08 04:50 | 29.01118 | -81.41922 | 16488 ft | 290 kts | 349° |
| 2026-05-08 04:50 | 29.03131 | -81.42151 | 16886 ft | 292 kts | 349° |
| 2026-05-08 04:50 | 29.05186 | -81.42379 | 17279 ft | 294 kts | 349° |
| 2026-05-08 04:50 | 29.07200 | -81.42596 | 17666 ft | 296 kts | 349° |
| 2026-05-08 04:51 | 29.09268 | -81.42807 | 18050 ft | 298 kts | 349° |
| 2026-05-08 04:51 | 29.11334 | -81.43009 | 18408 ft | 300 kts | 349° |
| 2026-05-08 04:51 | 29.13412 | -81.43207 | 18733 ft | 301 kts | 349° |
| 2026-05-08 04:51 | 29.15506 | -81.43405 | 19062 ft | 302 kts | 349° |
| 2026-05-08 04:52 | 29.17603 | -81.43601 | 19380 ft | 303 kts | 349° |
| 2026-05-08 04:52 | 29.19708 | -81.43798 | 19698 ft | 304 kts | 348° |
| 2026-05-08 04:52 | 29.21816 | -81.43995 | 20005 ft | 305 kts | 348° |
| 2026-05-08 04:52 | 29.23933 | -81.44194 | 20307 ft | 306 kts | 348° |
| 2026-05-08 04:53 | 29.26032 | -81.44392 | 20605 ft | 306 kts | 348° |
| 2026-05-08 04:53 | 29.28158 | -81.44593 | 20911 ft | 307 kts | 347° |
| 2026-05-08 04:53 | 29.30312 | -81.44798 | 21197 ft | 308 kts | 347° |
| 2026-05-08 04:53 | 29.32420 | -81.45000 | 21479 ft | 309 kts | 347° |
| 2026-05-08 04:54 | 29.34559 | -81.45205 | 21778 ft | 310 kts | 347° |
| 2026-05-08 04:54 | 29.36708 | -81.45411 | 22038 ft | 311 kts | 347° |
| 2026-05-08 04:54 | 29.38871 | -81.45620 | 22313 ft | 311 kts | 346° |
| 2026-05-08 04:54 | 29.41036 | -81.45829 | 22580 ft | 312 kts | 346° |
| 2026-05-08 04:55 | 29.43198 | -81.46037 | 22852 ft | 313 kts | 346° |
| 2026-05-08 04:55 | 29.45349 | -81.46245 | 23090 ft | 314 kts | 346° |
| 2026-05-08 04:55 | 29.47552 | -81.46458 | 23345 ft | 315 kts | 346° |
| 2026-05-08 04:55 | 29.49701 | -81.46667 | 23591 ft | 315 kts | 346° |
| 2026-05-08 04:56 | 29.51890 | -81.46881 | 23783 ft | 316 kts | 346° |
| 2026-05-08 04:56 | 29.54096 | -81.47098 | 23975 ft | 317 kts | 346° |
| 2026-05-08 04:56 | 29.56293 | -81.47308 | 24168 ft | 318 kts | 346° |
| 2026-05-08 04:56 | 29.58502 | -81.47513 | 24354 ft | 319 kts | 346° |
| 2026-05-08 04:57 | 29.60709 | -81.47716 | 24537 ft | 320 kts | 346° |
| 2026-05-08 04:57 | 29.62931 | -81.47919 | 24715 ft | 320 kts | 346° |
| 2026-05-08 04:57 | 29.65157 | -81.48122 | 24886 ft | 321 kts | 346° |
| 2026-05-08 04:57 | 29.67397 | -81.48326 | 25063 ft | 322 kts | 345° |
| 2026-05-08 04:58 | 29.69627 | -81.48529 | 25235 ft | 323 kts | 345° |
| 2026-05-08 04:58 | 29.71835 | -81.48731 | 25393 ft | 323 kts | 345° |
| 2026-05-08 04:58 | 29.74090 | -81.48936 | 25561 ft | 324 kts | 345° |
| 2026-05-08 04:58 | 29.76341 | -81.49140 | 25734 ft | 325 kts | 345° |
| 2026-05-08 04:59 | 29.78593 | -81.49345 | 25889 ft | 326 kts | 345° |
| 2026-05-08 04:59 | 29.80851 | -81.49552 | 26043 ft | 326 kts | 345° |
| 2026-05-08 04:59 | 29.83081 | -81.49757 | 26184 ft | 327 kts | 345° |
| 2026-05-08 04:59 | 29.85380 | -81.49992 | 26340 ft | 325 kts | 342° |
| 2026-05-08 05:00 | 29.87560 | -81.50437 | 26485 ft | 321 kts | 338° |
| 2026-05-08 05:00 | 29.89723 | -81.51009 | 26633 ft | 319 kts | 336° |
| 2026-05-08 05:00 | 29.91882 | -81.51645 | 26776 ft | 319 kts | 335° |
| 2026-05-08 05:00 | 29.94047 | -81.52322 | 26912 ft | 319 kts | 334° |
| 2026-05-08 05:01 | 29.96141 | -81.53005 | 27049 ft | 319 kts | 334° |
| 2026-05-08 05:01 | 29.98285 | -81.53722 | 27191 ft | 319 kts | 333° |
| 2026-05-08 05:01 | 30.00445 | -81.54459 | 27329 ft | 319 kts | 333° |
| 2026-05-08 05:01 | 30.02549 | -81.55186 | 27456 ft | 320 kts | 333° |
| 2026-05-08 05:02 | 30.04676 | -81.55928 | 27587 ft | 320 kts | 333° |
| 2026-05-08 05:02 | 30.06803 | -81.56675 | 27705 ft | 320 kts | 333° |
| 2026-05-08 05:02 | 30.08934 | -81.57426 | 27823 ft | 321 kts | 333° |
| 2026-05-08 05:02 | 30.11082 | -81.58186 | 27953 ft | 321 kts | 333° |
| 2026-05-08 05:03 | 30.13222 | -81.58950 | 28060 ft | 322 kts | 332° |
| 2026-05-08 05:03 | 30.15361 | -81.59716 | 28179 ft | 322 kts | 332° |
| 2026-05-08 05:03 | 30.17471 | -81.60473 | 28300 ft | 323 kts | 332° |
| 2026-05-08 05:03 | 30.19624 | -81.61247 | 28403 ft | 323 kts | 332° |
| 2026-05-08 05:04 | 30.21768 | -81.62017 | 28509 ft | 324 kts | 332° |
| 2026-05-08 05:04 | 30.23911 | -81.62789 | 28618 ft | 324 kts | 332° |
| 2026-05-08 05:04 | 30.26072 | -81.63565 | 28723 ft | 325 kts | 332° |
| 2026-05-08 05:04 | 30.28235 | -81.64343 | 28826 ft | 325 kts | 332° |
| 2026-05-08 05:05 | 30.32533 | -81.65889 | 29020 ft | 326 kts | 332° |
| 2026-05-08 05:05 | 30.36889 | -81.67457 | 29177 ft | 327 kts | 332° |
| 2026-05-08 05:06 | 30.41257 | -81.69031 | 29361 ft | 328 kts | 332° |
| 2026-05-08 05:06 | 30.45586 | -81.70599 | 29517 ft | 329 kts | 333° |
| 2026-05-08 05:07 | 30.49951 | -81.72179 | 29672 ft | 330 kts | 333° |
| 2026-05-08 05:07 | 30.54349 | -81.73771 | 29820 ft | 331 kts | 333° |
| 2026-05-08 05:08 | 30.58740 | -81.75377 | 29963 ft | 330 kts | 331° |
| 2026-05-08 05:08 | 30.62950 | -81.77389 | 30084 ft | 326 kts | 327° |
| 2026-05-08 05:09 | 30.67050 | -81.79590 | 30186 ft | 326 kts | 326° |
| 2026-05-08 05:09 | 30.71147 | -81.81877 | 30277 ft | 327 kts | 326° |
| 2026-05-08 05:10 | 30.77286 | -81.85365 | 30432 ft | 328 kts | 326° |
| 2026-05-08 05:11 | 30.81393 | -81.87717 | 30512 ft | 329 kts | 326° |
| 2026-05-08 05:11 | 30.85504 | -81.90084 | 30596 ft | 330 kts | 326° |
| 2026-05-08 05:12 | 30.89592 | -81.92445 | 30682 ft | 331 kts | 326° |
| 2026-05-08 05:12 | 30.93719 | -81.94835 | 30766 ft | 332 kts | 326° |
| 2026-05-08 05:13 | 30.97860 | -81.97237 | 30842 ft | 333 kts | 326° |
| 2026-05-08 05:13 | 31.02010 | -81.99648 | 30930 ft | 333 kts | 325° |
| 2026-05-08 05:14 | 31.06138 | -82.02049 | 31006 ft | 334 kts | 325° |
| 2026-05-08 05:14 | 31.10303 | -82.04475 | 31094 ft | 335 kts | 325° |
| 2026-05-08 05:15 | 31.14467 | -82.06902 | 31157 ft | 336 kts | 325° |
| 2026-05-08 05:15 | 31.18657 | -82.09346 | 31241 ft | 336 kts | 325° |
| 2026-05-08 05:16 | 31.22843 | -82.11792 | 31315 ft | 337 kts | 325° |
| 2026-05-08 05:16 | 31.27011 | -82.14230 | 31393 ft | 337 kts | 325° |
| 2026-05-08 05:17 | 31.31208 | -82.16690 | 31469 ft | 338 kts | 325° |
| 2026-05-08 05:17 | 31.35409 | -82.19153 | 31536 ft | 338 kts | 324° |
| 2026-05-08 05:18 | 31.39605 | -82.21617 | 31590 ft | 338 kts | 324° |
| 2026-05-08 05:18 | 31.43824 | -82.24096 | 31664 ft | 339 kts | 324° |
| 2026-05-08 05:19 | 31.48020 | -82.26565 | 31726 ft | 339 kts | 324° |
| 2026-05-08 05:19 | 31.52250 | -82.29057 | 31790 ft | 339 kts | 324° |
| 2026-05-08 05:20 | 31.56431 | -82.31521 | 31850 ft | 340 kts | 324° |
| 2026-05-08 05:20 | 31.60635 | -82.34004 | 31912 ft | 340 kts | 324° |
| 2026-05-08 05:21 | 31.64886 | -82.36517 | 31160 ft | 347 kts | 324° |
| 2026-05-08 05:21 | 31.67084 | -82.37849 | 29672 ft | 374 kts | 325° |
| 2026-05-08 05:21 | 31.69488 | -82.39309 | 28017 ft | 395 kts | 325° |
| 2026-05-08 05:21 | 31.71964 | -82.40798 | 26422 ft | 412 kts | 326° |
| 2026-05-08 05:22 | 31.74581 | -82.42363 | 25159 ft | 437 kts | 326° |
| 2026-05-08 05:22 | 31.77300 | -82.43973 | 24760 ft | 434 kts | 326° |
| 2026-05-08 05:22 | 31.79985 | -82.45544 | 24430 ft | 429 kts | 326° |
| 2026-05-08 05:22 | 31.82638 | -82.47094 | 24203 ft | 426 kts | 326° |
| 2026-05-08 05:23 | 31.85289 | -82.48646 | 24096 ft | 425 kts | 326° |
| 2026-05-08 05:23 | 31.87945 | -82.50211 | 24060 ft | 425 kts | 326° |
| 2026-05-08 05:23 | 31.90560 | -82.51756 | 24031 ft | 426 kts | 326° |
| 2026-05-08 05:23 | 31.93220 | -82.53360 | 24015 ft | 424 kts | 323° |
| 2026-05-08 05:24 | 31.95631 | -82.55266 | 24011 ft | 423 kts | 317° |
| 2026-05-08 05:24 | 31.97962 | -82.57390 | 24005 ft | 427 kts | 315° |
| 2026-05-08 05:24 | 32.00270 | -82.59595 | 24013 ft | 425 kts | 315° |
| 2026-05-08 05:24 | 32.02543 | -82.61815 | 24023 ft | 423 kts | 314° |
| 2026-05-08 05:25 | 32.04778 | -82.64029 | 24017 ft | 422 kts | 314° |
| 2026-05-08 05:25 | 32.07035 | -82.66282 | 24023 ft | 423 kts | 314° |
| 2026-05-08 05:25 | 32.09267 | -82.68521 | 24026 ft | 423 kts | 314° |
| 2026-05-08 05:25 | 32.11477 | -82.70747 | 24031 ft | 423 kts | 313° |
| 2026-05-08 05:26 | 32.13746 | -82.73037 | 24034 ft | 423 kts | 313° |
| 2026-05-08 05:26 | 32.15940 | -82.75260 | 24034 ft | 423 kts | 313° |
| 2026-05-08 05:26 | 32.18185 | -82.77539 | 24035 ft | 423 kts | 313° |
| 2026-05-08 05:26 | 32.20399 | -82.79788 | 24033 ft | 423 kts | 313° |
| 2026-05-08 05:27 | 32.22643 | -82.82074 | 24030 ft | 423 kts | 313° |
| 2026-05-08 05:27 | 32.24850 | -82.84328 | 24028 ft | 423 kts | 313° |
| 2026-05-08 05:27 | 32.27089 | -82.86619 | 24025 ft | 423 kts | 313° |
| 2026-05-08 05:27 | 32.29321 | -82.88908 | 23789 ft | 422 kts | 313° |
| 2026-05-08 05:28 | 32.31527 | -82.91176 | 22750 ft | 421 kts | 313° |
| 2026-05-08 05:28 | 32.33708 | -82.93416 | 21966 ft | 412 kts | 313° |
| 2026-05-08 05:28 | 32.35807 | -82.95585 | 21524 ft | 395 kts | 312° |
| 2026-05-08 05:28 | 32.37826 | -82.97656 | 21291 ft | 375 kts | 312° |
| 2026-05-08 05:29 | 32.39737 | -82.99620 | 21114 ft | 355 kts | 311° |
| 2026-05-08 05:29 | 32.41550 | -83.01486 | 20956 ft | 338 kts | 311° |
| 2026-05-08 05:29 | 32.43281 | -83.03267 | 20820 ft | 321 kts | 311° |
| 2026-05-08 05:29 | 32.44934 | -83.04970 | 20684 ft | 306 kts | 310° |
| 2026-05-08 05:30 | 32.46501 | -83.06584 | 20551 ft | 292 kts | 310° |
| 2026-05-08 05:30 | 32.48002 | -83.08130 | 20416 ft | 278 kts | 310° |
| 2026-05-08 05:30 | 32.49421 | -83.09593 | 20271 ft | 266 kts | 309° |
| 2026-05-08 05:30 | 32.50773 | -83.10986 | 20095 ft | 255 kts | 309° |
| 2026-05-08 05:31 | 32.52109 | -83.12369 | 19735 ft | 252 kts | 309° |
| 2026-05-08 05:31 | 32.53408 | -83.13712 | 19340 ft | 251 kts | 309° |
| 2026-05-08 05:31 | 32.54720 | -83.15064 | 18958 ft | 249 kts | 309° |
| 2026-05-08 05:31 | 32.56019 | -83.16404 | 18567 ft | 248 kts | 309° |
| 2026-05-08 05:32 | 32.57321 | -83.17745 | 18167 ft | 247 kts | 309° |
| 2026-05-08 05:32 | 32.58607 | -83.19077 | 17673 ft | 244 kts | 309° |
| 2026-05-08 05:32 | 32.59889 | -83.20407 | 17076 ft | 242 kts | 309° |
| 2026-05-08 05:32 | 32.61134 | -83.21698 | 16559 ft | 239 kts | 309° |
| 2026-05-08 05:33 | 32.62359 | -83.22963 | 16235 ft | 228 kts | 308° |
| 2026-05-08 05:33 | 32.63543 | -83.24191 | 15911 ft | 218 kts | 308° |
| 2026-05-08 05:33 | 32.64648 | -83.25340 | 15589 ft | 210 kts | 308° |
| 2026-05-08 05:33 | 32.65723 | -83.26462 | 15254 ft | 202 kts | 307° |
| 2026-05-08 05:34 | 32.66762 | -83.27545 | 14780 ft | 198 kts | 307° |
| 2026-05-08 05:34 | 32.67819 | -83.28648 | 14392 ft | 202 kts | 308° |
| 2026-05-08 05:34 | 32.68858 | -83.29719 | 14199 ft | 197 kts | 308° |
| 2026-05-08 05:34 | 32.69923 | -83.30834 | 14112 ft | 209 kts | 308° |
| 2026-05-08 05:35 | 32.71011 | -83.31957 | 14063 ft | 209 kts | 308° |
| 2026-05-08 05:35 | 32.72100 | -83.33083 | 14047 ft | 207 kts | 308° |
| 2026-05-08 05:35 | 32.73179 | -83.34211 | 13939 ft | 209 kts | 308° |
| 2026-05-08 05:35 | 32.74272 | -83.35350 | 13781 ft | 207 kts | 308° |
| 2026-05-08 05:36 | 32.75338 | -83.36458 | 13575 ft | 203 kts | 308° |
| 2026-05-08 05:36 | 32.76397 | -83.37568 | 13405 ft | 205 kts | 308° |
| 2026-05-08 05:36 | 32.77471 | -83.38688 | 13230 ft | 206 kts | 308° |
| 2026-05-08 05:36 | 32.78551 | -83.39815 | 13052 ft | 205 kts | 308° |
| 2026-05-08 05:37 | 32.79607 | -83.40914 | 12872 ft | 205 kts | 308° |
| 2026-05-08 05:37 | 32.80689 | -83.42036 | 12701 ft | 205 kts | 308° |
| 2026-05-08 05:37 | 32.81747 | -83.43144 | 12534 ft | 204 kts | 308° |
| 2026-05-08 05:37 | 32.82812 | -83.44257 | 12363 ft | 204 kts | 308° |
| 2026-05-08 05:38 | 32.83874 | -83.45366 | 12191 ft | 204 kts | 308° |
| 2026-05-08 05:38 | 32.84933 | -83.46472 | 12018 ft | 203 kts | 309° |
| 2026-05-08 05:38 | 32.85997 | -83.47585 | 11848 ft | 203 kts | 309° |
| 2026-05-08 05:38 | 32.87058 | -83.48694 | 11682 ft | 202 kts | 309° |
| 2026-05-08 05:39 | 32.88115 | -83.49799 | 11513 ft | 202 kts | 309° |
| 2026-05-08 05:39 | 32.89168 | -83.50902 | 11342 ft | 201 kts | 309° |
| 2026-05-08 05:39 | 32.90221 | -83.52001 | 11174 ft | 201 kts | 309° |
| 2026-05-08 05:39 | 32.91250 | -83.53078 | 11009 ft | 201 kts | 309° |
| 2026-05-08 05:40 | 32.92303 | -83.54181 | 10840 ft | 201 kts | 309° |
| 2026-05-08 05:40 | 32.93352 | -83.55279 | 10677 ft | 201 kts | 309° |
| 2026-05-08 05:40 | 32.94397 | -83.56378 | 10518 ft | 200 kts | 309° |
| 2026-05-08 05:40 | 32.95446 | -83.57475 | 10354 ft | 200 kts | 309° |
| 2026-05-08 05:41 | 32.96491 | -83.58568 | 10192 ft | 199 kts | 310° |
| 2026-05-08 05:41 | 32.97523 | -83.59645 | 10108 ft | 198 kts | 309° |
| 2026-05-08 05:41 | 32.98560 | -83.60734 | 10069 ft | 198 kts | 309° |
| 2026-05-08 05:41 | 32.99594 | -83.61817 | 10044 ft | 198 kts | 309° |
| 2026-05-08 05:42 | 33.00616 | -83.62888 | 10034 ft | 198 kts | 309° |
| 2026-05-08 05:42 | 33.01658 | -83.63979 | 10021 ft | 199 kts | 309° |
| 2026-05-08 05:42 | 33.02696 | -83.65067 | 10021 ft | 199 kts | 309° |
| 2026-05-08 05:42 | 33.03725 | -83.66149 | 10030 ft | 198 kts | 309° |
| 2026-05-08 05:43 | 33.04761 | -83.67237 | 10025 ft | 199 kts | 309° |
| 2026-05-08 05:43 | 33.05799 | -83.68327 | 10022 ft | 198 kts | 309° |
| 2026-05-08 05:43 | 33.06823 | -83.69402 | 10024 ft | 198 kts | 309° |
| 2026-05-08 05:43 | 33.07867 | -83.70497 | 10026 ft | 198 kts | 309° |
| 2026-05-08 05:44 | 33.08899 | -83.71583 | 10024 ft | 198 kts | 309° |
| 2026-05-08 05:44 | 33.09922 | -83.72658 | 10018 ft | 198 kts | 309° |
| 2026-05-08 05:44 | 33.10949 | -83.73738 | 10026 ft | 197 kts | 309° |
| 2026-05-08 05:44 | 33.11981 | -83.74824 | 10017 ft | 198 kts | 309° |
| 2026-05-08 05:45 | 33.13009 | -83.75902 | 10022 ft | 198 kts | 309° |
| 2026-05-08 05:45 | 33.14038 | -83.76984 | 10023 ft | 198 kts | 309° |
| 2026-05-08 05:45 | 33.15081 | -83.78091 | 9645 ft | 202 kts | 309° |
| 2026-05-08 05:45 | 33.16124 | -83.79192 | 9096 ft | 198 kts | 309° |
| 2026-05-08 05:46 | 33.17151 | -83.80281 | 8390 ft | 197 kts | 310° |
| 2026-05-08 05:46 | 33.18176 | -83.81358 | 7656 ft | 195 kts | 310° |
| 2026-05-08 05:46 | 33.19158 | -83.82443 | 6926 ft | 192 kts | 308° |
| 2026-05-08 05:46 | 33.20095 | -83.83528 | 6220 ft | 191 kts | 309° |
| 2026-05-08 05:47 | 33.21058 | -83.84657 | 5464 ft | 191 kts | 309° |
| 2026-05-08 05:47 | 33.21981 | -83.85761 | 4760 ft | 189 kts | 310° |
| 2026-05-08 05:47 | 33.22899 | -83.86861 | 4353 ft | 187 kts | 310° |
| 2026-05-08 05:47 | 33.23829 | -83.87969 | 4183 ft | 189 kts | 311° |
| 2026-05-08 05:48 | 33.24759 | -83.89074 | 4100 ft | 190 kts | 311° |
| 2026-05-08 05:48 | 33.25695 | -83.90188 | 4077 ft | 192 kts | 311° |
| 2026-05-08 05:48 | 33.26639 | -83.91314 | 4048 ft | 191 kts | 311° |
| 2026-05-08 05:48 | 33.27584 | -83.92444 | 4040 ft | 191 kts | 312° |
| 2026-05-08 05:49 | 33.28512 | -83.93551 | 4031 ft | 191 kts | 312° |
| 2026-05-08 05:49 | 33.29468 | -83.94693 | 4035 ft | 192 kts | 312° |
| 2026-05-08 05:49 | 33.30414 | -83.95824 | 4038 ft | 192 kts | 312° |
| 2026-05-08 05:49 | 33.31355 | -83.96949 | 4044 ft | 191 kts | 312° |
| 2026-05-08 05:50 | 33.32275 | -83.98048 | 4048 ft | 191 kts | 312° |
| 2026-05-08 05:50 | 33.33222 | -83.99184 | 4045 ft | 191 kts | 312° |
| 2026-05-08 05:50 | 33.34156 | -84.00306 | 4046 ft | 191 kts | 312° |
| 2026-05-08 05:50 | 33.35095 | -84.01429 | 4051 ft | 192 kts | 313° |
| 2026-05-08 05:51 | 33.36204 | -84.02293 | 4073 ft | 193 kts | 341° |
| 2026-05-08 05:51 | 33.37518 | -84.02625 | 4062 ft | 194 kts | 346° |
| 2026-05-08 05:51 | 33.38848 | -84.02841 | 4056 ft | 195 kts | 352° |
| 2026-05-08 05:51 | 33.40218 | -84.02930 | 4057 ft | 196 kts | 353° |
| 2026-05-08 05:52 | 33.41566 | -84.02992 | 4057 ft | 196 kts | 354° |
| 2026-05-08 05:52 | 33.42924 | -84.03029 | 4057 ft | 195 kts | 355° |
| 2026-05-08 05:52 | 33.44275 | -84.03051 | 4037 ft | 195 kts | 355° |
| 2026-05-08 05:52 | 33.45623 | -84.03209 | 4040 ft | 192 kts | 343° |
| 2026-05-08 05:53 | 33.46928 | -84.03575 | 4038 ft | 193 kts | 344° |
| 2026-05-08 05:53 | 33.48170 | -84.04112 | 4047 ft | 190 kts | 329° |
| 2026-05-08 05:53 | 33.49309 | -84.04859 | 4038 ft | 189 kts | 328° |
| 2026-05-08 05:53 | 33.50461 | -84.05633 | 4037 ft | 189 kts | 328° |
| 2026-05-08 05:54 | 33.51597 | -84.06406 | 4040 ft | 189 kts | 328° |
| 2026-05-08 05:54 | 33.52713 | -84.07170 | 4037 ft | 188 kts | 327° |
| 2026-05-08 05:54 | 33.53850 | -84.07952 | 4036 ft | 189 kts | 327° |
| 2026-05-08 05:54 | 33.54992 | -84.08737 | 4039 ft | 188 kts | 328° |
| 2026-05-08 05:55 | 33.56105 | -84.09523 | 4041 ft | 185 kts | 328° |
| 2026-05-08 05:55 | 33.57201 | -84.10287 | 4044 ft | 185 kts | 328° |
| 2026-05-08 05:55 | 33.58328 | -84.11066 | 4042 ft | 186 kts | 328° |
| 2026-05-08 05:55 | 33.59434 | -84.11833 | 4038 ft | 185 kts | 329° |
| 2026-05-08 05:56 | 33.60563 | -84.12613 | 4040 ft | 186 kts | 329° |
| 2026-05-08 05:56 | 33.61682 | -84.13390 | 4040 ft | 185 kts | 327° |
| 2026-05-08 05:56 | 33.62525 | -84.14484 | 4077 ft | 185 kts | 292° |
| 2026-05-08 05:56 | 33.62683 | -84.16004 | 4087 ft | 192 kts | 256° |
| 2026-05-08 05:57 | 33.61916 | -84.17337 | 4084 ft | 202 kts | 215° |
| 2026-05-08 05:57 | 33.60571 | -84.17799 | 4074 ft | 210 kts | 177° |
| 2026-05-08 05:57 | 33.59198 | -84.17201 | 4063 ft | 214 kts | 140° |
| 2026-05-08 05:57 | 33.58328 | -84.15776 | 4056 ft | 214 kts | 111° |
| 2026-05-08 05:58 | 33.57761 | -84.14126 | 4033 ft | 213 kts | 111° |
| 2026-05-08 05:58 | 33.57162 | -84.12505 | 4025 ft | 213 kts | 120° |
| 2026-05-08 05:58 | 33.56275 | -84.11080 | 4037 ft | 215 kts | 133° |
| 2026-05-08 05:58 | 33.55219 | -84.09863 | 4033 ft | 214 kts | 140° |
| 2026-05-08 05:59 | 33.54072 | -84.08746 | 4036 ft | 212 kts | 146° |
| 2026-05-08 05:59 | 33.52844 | -84.07774 | 4036 ft | 212 kts | 149° |
| 2026-05-08 05:59 | 33.51581 | -84.06845 | 4041 ft | 213 kts | 150° |
| 2026-05-08 05:59 | 33.50311 | -84.05942 | 4038 ft | 212 kts | 151° |
| 2026-05-08 06:00 | 33.49034 | -84.05055 | 4038 ft | 212 kts | 152° |
| 2026-05-08 06:00 | 33.47809 | -84.04097 | 4041 ft | 213 kts | 133° |
| 2026-05-08 06:00 | 33.47132 | -84.02562 | 4061 ft | 214 kts | 94° |
| 2026-05-08 06:00 | 33.47335 | -84.00842 | 4060 ft | 208 kts | 57° |
| 2026-05-08 06:01 | 33.48300 | -83.99653 | 4052 ft | 197 kts | 19° |
| 2026-05-08 06:01 | 33.49597 | -83.99451 | 4051 ft | 189 kts | 340° |
| 2026-05-08 06:01 | 33.50795 | -84.00094 | 4018 ft | 187 kts | 330° |
| 2026-05-08 06:01 | 33.51939 | -84.00810 | 4024 ft | 185 kts | 330° |
| 2026-05-08 06:02 | 33.53077 | -84.01538 | 4036 ft | 186 kts | 329° |
| 2026-05-08 06:02 | 33.54203 | -84.02284 | 4025 ft | 186 kts | 329° |
| 2026-05-08 06:02 | 33.55325 | -84.03061 | 4038 ft | 185 kts | 327° |
| 2026-05-08 06:02 | 33.56402 | -84.03864 | 4038 ft | 184 kts | 326° |
| 2026-05-08 06:03 | 33.57453 | -84.04711 | 4032 ft | 174 kts | 323° |
| 2026-05-08 06:03 | 33.58418 | -84.05561 | 4046 ft | 172 kts | 321° |
| 2026-05-08 06:03 | 33.59350 | -84.06460 | 4062 ft | 173 kts | 319° |
| 2026-05-08 06:03 | 33.60232 | -84.07397 | 4043 ft | 171 kts | 316° |
| 2026-05-08 06:04 | 33.61084 | -84.08397 | 4045 ft | 171 kts | 314° |
| 2026-05-08 06:04 | 33.61885 | -84.09461 | 4046 ft | 171 kts | 307° |
| 2026-05-08 06:04 | 33.62423 | -84.10727 | 4053 ft | 173 kts | 291° |
| 2026-05-08 06:04 | 33.62757 | -84.12117 | 4044 ft | 172 kts | 284° |
| 2026-05-08 06:05 | 33.62976 | -84.13539 | 4042 ft | 173 kts | 281° |
| 2026-05-08 06:05 | 33.63099 | -84.14964 | 4047 ft | 167 kts | 276° |
| 2026-05-08 06:05 | 33.63138 | -84.16196 | 4036 ft | 141 kts | 275° |
| 2026-05-08 06:05 | 33.63165 | -84.17380 | 4046 ft | 144 kts | 275° |
| 2026-05-08 06:06 | 33.63180 | -84.18600 | 3817 ft | 153 kts | 274° |
| 2026-05-08 06:06 | 33.63174 | -84.19867 | 3386 ft | 149 kts | 274° |
| 2026-05-08 06:06 | 33.63170 | -84.21092 | 3206 ft | 148 kts | 275° |
| 2026-05-08 06:06 | 33.63189 | -84.22378 | 3176 ft | 158 kts | 276° |
| 2026-05-08 06:07 | 33.63196 | -84.23711 | 3282 ft | 159 kts | 274° |
| 2026-05-08 06:07 | 33.63181 | -84.25007 | 3272 ft | 155 kts | 274° |
| 2026-05-08 06:07 | 33.63173 | -84.26323 | 2973 ft | 161 kts | 274° |
| 2026-05-08 06:07 | 33.63163 | -84.27649 | 2701 ft | 157 kts | 274° |
| 2026-05-08 06:08 | 33.63152 | -84.28953 | 2445 ft | 155 kts | 274° |
| 2026-05-08 06:08 | 33.63146 | -84.30226 | 2337 ft | 151 kts | 275° |
| 2026-05-08 06:08 | 33.63152 | -84.31469 | 2198 ft | 147 kts | 276° |
| 2026-05-08 06:08 | 33.63158 | -84.32670 | 2032 ft | 136 kts | 275° |
| 2026-05-08 06:09 | 33.63158 | -84.33323 | 1807 ft | 149 kts | 274° |
| 2026-05-08 06:09 | 33.63167 | -84.34616 | 1856 ft | 158 kts | 272° |
| 2026-05-08 06:09 | 33.63146 | -84.35954 | 1795 ft | 166 kts | 272° |
| 2026-05-08 06:09 | 33.63158 | -84.37373 | 1667 ft | 175 kts | 274° |
| 2026-05-08 06:10 | 33.63181 | -84.38852 | 1513 ft | 181 kts | 271° |
| 2026-05-08 06:10 | 33.63174 | -84.40382 | 1311 ft | 182 kts | 270° |
| 2026-05-08 06:10 | 33.63181 | -84.41862 | 1067 ft | 174 kts | 271° |
| 2026-05-08 06:10 | 33.63193 | -84.43164 | 1008 ft | 119 kts | 267° |
| 2026-05-08 06:11 | 33.63183 | -84.43767 | 1005 ft | 44 kts | 269° |
| 2026-05-08 06:11 | 33.63188 | -84.43986 | 1004 ft | 3 kts | 278° |
| 2026-05-08 06:11 | 33.63189 | -84.43995 | 1004 ft | 0 kts | 278° |
| 2026-05-08 06:11 | 33.63191 | -84.44011 | 1004 ft | 3 kts | 278° |
| 2026-05-08 06:12 | 33.63196 | -84.44046 | 1004 ft | 5 kts | 279° |
| 2026-05-08 06:12 | 33.63206 | -84.44091 | 1005 ft | 6 kts | 288° |
| 2026-05-08 06:12 | 33.63224 | -84.44148 | 1005 ft | 8 kts | 293° |
| 2026-05-08 06:12 | 33.63252 | -84.44217 | 1005 ft | 10 kts | 301° |
| 2026-05-08 06:13 | 33.63312 | -84.44263 | 1005 ft | 11 kts | 358° |
| 2026-05-08 06:13 | 33.63377 | -84.44214 | 1005 ft | 11 kts | 36° |
| 2026-05-08 06:13 | 33.63437 | -84.44193 | 1006 ft | 8 kts | 0° |
| 2026-05-08 06:13 | 33.63479 | -84.44193 | 1006 ft | 4 kts | 360° |
| 2026-05-08 06:14 | 33.63503 | -84.44193 | 1006 ft | 4 kts | 360° |
| 2026-05-08 06:14 | 33.63540 | -84.44193 | 1007 ft | 7 kts | 359° |
| 2026-05-08 06:14 | 33.63594 | -84.44193 | 1007 ft | 8 kts | 2° |
| 2026-05-08 06:14 | 33.63643 | -84.44172 | 1006 ft | 7 kts | 40° |
| 2026-05-08 06:15 | 33.63660 | -84.44121 | 1006 ft | 6 kts | 84° |
| 2026-05-08 06:15 | 33.63663 | -84.44071 | 1006 ft | 6 kts | 89° |
| 2026-05-08 06:15 | 33.63664 | -84.44024 | 1006 ft | 5 kts | 89° |
| 2026-05-08 06:15 | 33.63664 | -84.43982 | 1006 ft | 5 kts | 89° |
| 2026-05-08 06:16 | 33.63664 | -84.43945 | 1006 ft | 4 kts | 92° |
| 2026-05-08 06:16 | 33.63663 | -84.43911 | 1006 ft | 4 kts | 90° |
| 2026-05-08 06:16 | 33.63663 | -84.43882 | 1006 ft | 3 kts | 90° |
| 2026-05-08 06:16 | 33.63663 | -84.43857 | 1006 ft | 3 kts | 90° |
| 2026-05-08 06:17 | 33.63663 | -84.43819 | 1006 ft | 2 kts | 90° |
| 2026-05-08 06:17 | 33.63663 | -84.43806 | 1006 ft | 2 kts | 90° |
| 2026-05-08 06:17 | 33.63663 | -84.43794 | 1006 ft | 2 kts | 89° |
| 2026-05-08 06:18 | 33.63665 | -84.43772 | 1006 ft | 3 kts | 77° |
| 2026-05-08 06:18 | 33.63678 | -84.43746 | 1006 ft | 4 kts | 50° |
| 2026-05-08 06:18 | 33.63706 | -84.43726 | 1006 ft | 5 kts | 18° |
| 2026-05-08 06:18 | 33.63746 | -84.43721 | 1006 ft | 6 kts | 0° |
| 2026-05-08 06:19 | 33.63786 | -84.43709 | 1006 ft | 5 kts | 33° |
| 2026-05-08 06:19 | 33.63789 | -84.43703 | 1006 ft | 0 kts | 66° |
| 2026-05-08 06:19 | 33.63793 | -84.43675 | 1006 ft | 4 kts | 84° |
| 2026-05-08 06:19 | 33.63793 | -84.43656 | 1006 ft | 0 kts | 89° |
| 2026-05-08 06:20 | 33.63793 | -84.43654 | 1006 ft | 0 kts | 89° |